Time;durP1;ratioP1;P1;durP2;ratioP2;P2;SDS_P1;SDS_P2;PMS_P1;PMS_P2;Temp;Humidity;BMP_temperature;BMP_pressure;BME280_temperature;BME280_humidity;BME280_pressure;Samples;Min_cycle;Max_cycle;Signal;HPM_P1;HPM_P2
2022/11/25 00:00:43;;;;;;;3.90;2.08;;;25.90;54.00;;;;;;4111552;28;20050;-46
2022/11/25 00:03:06;;;;;;;3.17;2.00;;;25.90;53.90;;;;;;4111458;28;20268;-49
2022/11/25 00:05:28;;;;;;;3.67;2.17;;;26.00;53.90;;;;;;4110681;28;20371;-50
2022/11/25 00:07:51;;;;;;;3.20;1.90;;;26.10;53.90;;;;;;4112908;28;20045;-52
2022/11/25 00:10:14;;;;;;;3.92;2.00;;;26.10;54.40;;;;;;4111678;28;20110;-49
2022/11/25 00:12:36;;;;;;;3.50;1.80;;;26.10;53.60;;;;;;4108653;28;20038;-57
2022/11/25 00:14:59;;;;;;;2.80;1.73;;;26.10;52.50;;;;;;4105488;28;20051;-50
2022/11/25 00:17:22;;;;;;;3.33;1.17;;;26.20;52.90;;;;;;4106150;28;20026;-51
2022/11/25 00:19:44;;;;;;;2.33;1.40;;;26.20;52.50;;;;;;4106482;28;20202;-55
2022/11/25 00:22:07;;;;;;;3.05;1.50;;;26.20;52.60;;;;;;4104920;28;20431;-46
2022/11/25 00:24:29;;;;;;;3.53;1.50;;;26.20;52.10;;;;;;4109843;28;20038;-50
2022/11/25 00:26:52;;;;;;;2.63;1.48;;;26.20;49.40;;;;;;4115003;28;20105;-53
2022/11/25 00:29:15;;;;;;;4.03;1.60;;;26.10;49.60;;;;;;4108980;28;20562;-49
2022/11/25 00:31:39;;;;;;;2.08;1.30;;;26.10;50.30;;;;;;4104606;28;20118;-53
2022/11/25 00:34:02;;;;;;;3.08;1.63;;;26.10;50.80;;;;;;4104537;28;20131;-55
2022/11/25 00:36:29;;;;;;;6.00;1.30;;;26.10;50.80;;;;;;4113267;28;20124;-50
2022/11/25 00:38:56;;;;;;;2.67;1.42;;;26.10;50.50;;;;;;4109451;28;20454;-49
2022/11/25 00:46:39;;;;;;;2.05;1.20;;;26.20;51.20;;;;;;4108214;28;20050;-54
2022/11/25 00:49:02;;;;;;;2.65;1.35;;;26.30;51.10;;;;;;4103815;28;20066;-56
2022/11/25 00:51:25;;;;;;;3.45;1.48;;;26.30;51.00;;;;;;4103397;28;20031;-58
2022/11/25 00:53:47;;;;;;;2.10;1.20;;;26.30;50.10;;;;;;4101680;28;20466;-56
2022/11/25 00:56:12;;;;;;;2.65;1.25;;;26.30;50.00;;;;;;4104085;28;20045;-58
2022/11/25 00:58:35;;;;;;;2.15;1.17;;;26.30;50.10;;;;;;4097344;28;20196;-56
2022/11/25 01:01:01;;;;;;;1.58;1.00;;;26.30;49.40;;;;;;4103185;28;20047;-56
2022/11/25 01:03:24;;;;;;;1.98;0.93;;;26.30;49.70;;;;;;4110933;28;20042;-58
2022/11/25 01:05:46;;;;;;;2.08;1.20;;;26.30;49.80;;;;;;4106005;28;20070;-49
2022/11/25 01:08:09;;;;;;;1.70;0.85;;;26.30;48.50;;;;;;4112680;28;20054;-50
2022/11/25 01:10:31;;;;;;;3.17;1.58;;;26.30;48.00;;;;;;4103333;28;20039;-52
2022/11/25 01:12:54;;;;;;;3.88;2.42;;;26.30;48.50;;;;;;4103890;28;20066;-56
2022/11/25 01:15:17;;;;;;;6.90;2.92;;;26.30;50.00;;;;;;4094054;28;20039;-58
2022/11/25 01:17:39;;;;;;;7.18;2.80;;;26.20;50.90;;;;;;4104292;28;20643;-56
2022/11/25 01:20:05;;;;;;;8.75;2.72;;;26.20;51.30;;;;;;4104440;28;20427;-57
2022/11/25 01:22:27;;;;;;;6.20;2.53;;;26.20;51.50;;;;;;4104292;28;20031;-54
2022/11/25 01:24:50;;;;;;;3.53;2.25;;;26.30;51.70;;;;;;4109364;28;20447;-58
2022/11/25 01:27:12;;;;;;;3.90;2.28;;;26.30;51.80;;;;;;4104510;28;20034;-57
2022/11/25 01:29:35;;;;;;;4.47;2.22;;;26.40;51.90;;;;;;4103048;28;20051;-54
2022/11/25 01:31:58;;;;;;;3.78;2.00;;;26.40;51.90;;;;;;4103402;28;20499;-56
2022/11/25 01:34:23;;;;;;;2.90;2.05;;;26.50;51.90;;;;;;4102830;28;20045;-55
2022/11/25 01:36:46;;;;;;;4.07;2.30;;;26.50;52.70;;;;;;4105114;28;20466;-58
2022/11/25 01:39:15;;;;;;;3.47;2.10;;;26.50;52.20;;;;;;4096586;28;20039;-53
2022/11/25 01:41:38;;;;;;;4.10;2.10;;;26.50;52.30;;;;;;4107255;28;20085;-55
2022/11/25 01:44:11;;;;;;;3.90;2.25;;;26.50;52.50;;;;;;4105014;28;20566;-55
2022/11/25 01:47:00;;;;;;;6.43;2.33;;;26.50;52.60;;;;;;4105262;28;20456;-55
2022/11/25 01:49:31;;;;;;;4.75;2.38;;;26.60;52.80;;;;;;4105724;28;20049;-56
2022/11/25 01:52:12;;;;;;;4.88;2.08;;;26.60;52.90;;;;;;4107600;28;20038;-58
2022/11/25 01:54:58;;;;;;;4.50;2.05;;;26.60;52.90;;;;;;4108579;28;20133;-57
2022/11/25 01:57:31;;;;;;;6.03;2.67;;;26.60;53.00;;;;;;4107437;28;20722;-57
2022/11/25 01:59:59;;;;;;;5.32;2.50;;;26.60;53.10;;;;;;4107628;28;20093;-55
2022/11/25 02:02:22;;;;;;;6.28;2.53;;;26.60;53.20;;;;;;4112944;28;20396;-60
2022/11/25 02:04:47;;;;;;;6.30;2.60;;;26.60;53.50;;;;;;4108498;28;20458;-58
2022/11/25 02:07:24;;;;;;;3.70;2.38;;;26.60;53.70;;;;;;4107645;28;20525;-54
2022/11/25 02:09:47;;;;;;;3.78;2.40;;;26.60;53.70;;;;;;4108269;28;20042;-56
2022/11/25 02:12:11;;;;;;;8.48;2.33;;;26.70;53.70;;;;;;4111524;28;20939;-57
2022/11/25 02:14:34;;;;;;;5.00;2.95;;;26.70;53.70;;;;;;4104376;28;20495;-57
2022/11/25 02:16:59;;;;;;;4.40;2.27;;;26.70;53.80;;;;;;4103252;28;20105;-61
2022/11/25 02:19:31;;;;;;;4.47;2.60;;;26.70;53.80;;;;;;4101534;28;20313;-59
2022/11/25 02:22:03;;;;;;;3.67;2.20;;;26.80;53.90;;;;;;4106489;28;20439;-56
2022/11/25 02:24:34;;;;;;;5.75;2.92;;;26.80;54.50;;;;;;4112395;28;20031;-55
2022/11/25 02:26:57;;;;;;;4.75;2.38;;;26.80;53.60;;;;;;4106356;28;20042;-55
2022/11/25 02:29:20;;;;;;;6.07;2.97;;;26.80;53.50;;;;;;4107287;28;20074;-56
2022/11/25 02:31:44;;;;;;;3.63;2.80;;;26.80;53.30;;;;;;4110361;28;20336;-53
2022/11/25 02:34:05;;;;;;;;;;;26.80;53.80;;;;;;4110368;28;20509;-56
2022/11/25 02:36:28;;;;;;;4.82;2.83;;;26.70;53.30;;;;;;4109501;28;19937;-55
2022/11/25 02:39:00;;;;;;;4.78;3.22;;;26.70;53.30;;;;;;4105190;28;20043;-50
2022/11/25 02:41:32;;;;;;;5.03;2.92;;;26.60;53.50;;;;;;4116050;28;20051;-53
2022/11/25 02:43:55;;;;;;;5.68;3.10;;;26.60;53.70;;;;;;4105690;28;20087;-54
2022/11/25 02:46:20;;;;;;;5.38;2.90;;;26.60;53.70;;;;;;4106388;28;21027;-51
2022/11/25 02:48:43;;;;;;;4.50;3.00;;;26.60;53.70;;;;;;4105538;28;20104;-52
2022/11/25 02:51:07;;;;;;;6.40;3.25;;;26.60;53.70;;;;;;4102671;28;20034;-59
2022/11/25 02:53:30;;;;;;;7.20;3.25;;;26.60;53.80;;;;;;4091858;28;20035;-58
2022/11/25 02:55:52;;;;;;;6.13;3.10;;;26.60;53.80;;;;;;4104439;28;20093;-56
2022/11/25 02:58:16;;;;;;;5.50;3.10;;;26.60;53.80;;;;;;4099601;28;20035;-52
2022/11/25 03:00:38;;;;;;;13.38;3.45;;;26.60;53.90;;;;;;4107535;28;20991;-51
2022/11/25 03:03:01;;;;;;;5.80;3.10;;;26.60;53.90;;;;;;4107891;28;20062;-58
2022/11/25 03:05:24;;;;;;;5.57;3.33;;;26.60;53.90;;;;;;4103123;28;20281;-57
2022/11/25 03:07:47;;;;;;;5.38;3.33;;;26.60;53.90;;;;;;4108031;28;20566;-52
2022/11/25 03:10:10;;;;;;;10.55;3.17;;;26.60;54.00;;;;;;4107988;28;20202;-56
2022/11/25 03:12:32;;;;;;;5.70;2.80;;;26.70;54.00;;;;;;4109461;28;20038;-53
2022/11/25 03:14:55;;;;;;;3.75;2.58;;;26.70;54.00;;;;;;4108949;28;20553;-55
2022/11/25 03:17:18;;;;;;;4.35;2.50;;;26.70;53.90;;;;;;4106323;28;20030;-52
2022/11/25 03:19:41;;;;;;;5.38;2.78;;;26.80;53.90;;;;;;4109822;28;20518;-53
2022/11/25 03:22:04;;;;;;;6.18;3.35;;;26.80;53.90;;;;;;4106818;28;20043;-51
2022/11/25 03:24:26;;;;;;;4.68;2.55;;;26.80;53.40;;;;;;4109882;28;20117;-55
2022/11/25 03:26:49;;;;;;;4.07;2.63;;;26.80;53.30;;;;;;4113514;28;20403;-56
2022/11/25 03:29:11;;;;;;;5.15;2.85;;;26.80;53.30;;;;;;4105541;28;20031;-51
2022/11/25 03:31:34;;;;;;;4.82;3.03;;;26.80;53.30;;;;;;4109241;28;20118;-53
2022/11/25 03:33:56;;;;;;;4.88;3.08;;;26.70;53.30;;;;;;4111779;28;20037;-52
2022/11/25 03:36:19;;;;;;;4.30;2.50;;;26.70;53.20;;;;;;4112834;28;20477;-52
2022/11/25 03:38:42;;;;;;;4.73;2.40;;;26.70;53.20;;;;;;4106091;28;20046;-54
2022/11/25 03:41:05;;;;;;;4.78;2.88;;;26.80;52.80;;;;;;4098089;28;20133;-55
2022/11/25 03:43:28;;;;;;;6.93;2.90;;;26.90;52.50;;;;;;4100255;28;20042;-51
2022/11/25 03:45:51;;;;;;;3.70;2.60;;;26.90;52.40;;;;;;4098126;28;20245;-54
2022/11/25 03:48:13;;;;;;;5.15;2.90;;;27.00;52.40;;;;;;4100240;28;20354;-52
2022/11/25 03:50:36;;;;;;;3.65;2.53;;;27.00;52.30;;;;;;4107716;28;20108;-54
2022/11/25 03:52:58;;;;;;;4.22;2.60;;;27.10;52.80;;;;;;4082588;28;20071;-55
2022/11/25 03:55:21;;;;;;;4.78;2.50;;;27.10;52.20;;;;;;4109285;28;20172;-55
2022/11/25 03:57:43;;;;;;;4.93;2.97;;;27.10;52.10;;;;;;4108143;28;20505;-54
2022/11/25 04:00:08;;;;;;;3.55;2.42;;;27.20;52.20;;;;;;4105857;28;20133;-53
2022/11/25 04:02:30;;;;;;;3.95;2.70;;;27.20;52.10;;;;;;4101053;28;20034;-51
2022/11/25 04:04:53;;;;;;;4.15;2.63;;;27.20;52.20;;;;;;4102552;28;20039;-56
2022/11/25 04:07:15;;;;;;;3.55;2.55;;;27.20;53.00;;;;;;4101328;28;20038;-57
2022/11/25 04:09:38;;;;;;;3.85;2.60;;;27.30;53.30;;;;;;4102299;28;20599;-57
2022/11/25 04:14:41;;;;;;;3.45;2.05;;;27.50;53.60;;;;;;4108109;28;20042;-58
2022/11/25 04:17:04;;;;;;;4.32;2.28;;;27.60;53.70;;;;;;4094701;28;20325;-55
2022/11/25 04:19:27;;;;;;;5.88;2.75;;;27.70;53.80;;;;;;4105410;28;20081;-58
2022/11/25 04:21:50;;;;;;;4.03;2.22;;;27.70;53.50;;;;;;4093445;28;20522;-54
2022/11/25 04:24:13;;;;;;;6.13;2.55;;;27.80;53.60;;;;;;4110138;28;20046;-52
2022/11/25 04:26:36;;;;;;;4.97;2.50;;;27.80;53.30;;;;;;4105562;28;20042;-53
2022/11/25 04:28:58;;;;;;;5.25;2.55;;;27.90;53.00;;;;;;4092221;28;20034;-57
2022/11/25 04:31:21;;;;;;;4.75;2.22;;;27.90;53.10;;;;;;4110146;28;20035;-58
2022/11/25 04:33:44;;;;;;;5.07;2.97;;;28.00;53.10;;;;;;4104961;28;20479;-53
2022/11/25 04:36:06;;;;;;;5.13;2.50;;;28.10;53.00;;;;;;4105218;28;20042;-55
2022/11/25 04:38:29;;;;;;;3.78;2.42;;;28.20;53.00;;;;;;4106913;28;20073;-59
2022/11/25 04:40:51;;;;;;;3.95;2.08;;;28.30;53.10;;;;;;4102815;28;20491;-57
2022/11/25 04:43:15;;;;;;;4.45;2.28;;;28.30;52.90;;;;;;4103701;28;20034;-55
2022/11/25 04:45:37;;;;;;;;;;;28.40;53.10;;;;;;4107451;28;20161;-56
2022/11/25 04:48:00;;;;;;;4.43;2.20;;;28.40;52.90;;;;;;4108541;28;19925;-56
2022/11/25 04:50:24;;;;;;;3.95;2.35;;;28.50;52.70;;;;;;4108475;28;20034;-57
2022/11/25 04:52:46;;;;;;;4.25;2.70;;;28.60;52.40;;;;;;4083903;28;20031;-56
2022/11/25 04:55:09;;;;;;;3.40;2.38;;;28.60;52.20;;;;;;4102856;28;20164;-58
2022/11/25 04:57:32;;;;;;;4.30;2.15;;;28.70;52.30;;;;;;4106984;28;20042;-58
2022/11/25 04:59:55;;;;;;;4.53;2.15;;;28.80;52.30;;;;;;4103784;28;20073;-60
2022/11/25 05:02:20;;;;;;;4.97;2.05;;;28.90;52.20;;;;;;4107048;28;20066;-58
2022/11/25 05:04:44;;;;;;;3.90;2.25;;;28.90;52.00;;;;;;4106132;28;20097;-56
2022/11/25 05:07:07;;;;;;;5.38;2.33;;;29.00;52.10;;;;;;4108067;28;20458;-57
2022/11/25 05:09:30;;;;;;;4.73;2.33;;;29.00;51.90;;;;;;4109399;28;20395;-54
2022/11/25 05:11:52;;;;;;;3.50;2.17;;;29.10;51.80;;;;;;4105223;28;20404;-58
2022/11/25 05:14:15;;;;;;;3.42;2.13;;;29.10;52.10;;;;;;4107285;28;20038;-60
2022/11/25 05:16:37;;;;;;;3.90;2.17;;;29.20;51.90;;;;;;4102615;28;20098;-56
2022/11/25 05:19:00;;;;;;;3.67;2.10;;;29.30;52.00;;;;;;4106057;28;20046;-59
2022/11/25 05:21:22;;;;;;;5.45;2.10;;;29.30;52.10;;;;;;4110526;28;20042;-57
2022/11/25 05:23:45;;;;;;;3.58;2.50;;;29.20;51.90;;;;;;4112176;28;20125;-55
2022/11/25 05:26:07;;;;;;;4.40;2.17;;;29.30;51.90;;;;;;4113493;28;20065;-58
2022/11/25 05:28:30;;;;;;;3.28;2.15;;;29.40;51.90;;;;;;4112596;28;20045;-56
2022/11/25 05:30:53;;;;;;;3.28;2.00;;;29.40;51.60;;;;;;4115102;28;20042;-55
2022/11/25 05:33:16;;;;;;;4.50;2.30;;;29.40;51.40;;;;;;4110206;28;20045;-58
2022/11/25 05:35:38;;;;;;;6.50;2.35;;;29.50;51.50;;;;;;4107356;28;20089;-56
2022/11/25 05:38:02;;;;;;;2.53;1.67;;;29.60;51.70;;;;;;4107794;28;20125;-58
2022/11/25 05:40:25;;;;;;;4.63;2.08;;;29.60;51.30;;;;;;4108630;28;20054;-58
2022/11/25 05:42:48;;;;;;;9.50;2.30;;;29.60;51.30;;;;;;4083322;28;20031;-57
2022/11/25 05:45:11;;;;;;;3.60;1.98;;;29.60;51.60;;;;;;4101846;28;20150;-56
2022/11/25 05:47:33;;;;;;;4.22;2.35;;;29.60;51.70;;;;;;4105946;28;20526;-54
2022/11/25 05:49:56;;;;;;;3.17;1.90;;;29.50;51.70;;;;;;4102091;28;20080;-57
2022/11/25 05:52:19;;;;;;;5.85;2.00;;;29.50;51.70;;;;;;4102279;28;20038;-55
2022/11/25 05:54:41;;;;;;;2.63;1.80;;;29.50;51.70;;;;;;4107554;28;20070;-58
2022/11/25 05:57:04;;;;;;;3.97;2.00;;;29.50;51.70;;;;;;4104226;28;20093;-56
2022/11/25 05:59:26;;;;;;;2.95;2.20;;;29.50;51.50;;;;;;4104441;28;20034;-56
2022/11/25 06:01:51;;;;;;;3.75;2.00;;;29.60;52.10;;;;;;4108155;28;20047;-53
2022/11/25 06:04:15;;;;;;;2.72;1.80;;;29.60;51.30;;;;;;4111387;28;20445;-59
2022/11/25 06:06:37;;;;;;;;;;;29.60;51.30;;;;;;4107792;28;20645;-59
2022/11/25 06:09:00;;;;;;;3.17;1.80;;;29.70;51.30;;;;;;4105617;28;19916;-57
2022/11/25 06:11:24;;;;;;;5.55;2.30;;;29.70;51.10;;;;;;4109097;28;20038;-57
2022/11/25 06:13:47;;;;;;;4.85;2.10;;;29.70;51.00;;;;;;4102927;28;20035;-54
2022/11/25 06:16:18;;;;;;;5.32;2.40;;;29.70;51.10;;;;;;4102352;28;20049;-58
2022/11/25 06:18:41;;;;;;;4.15;2.10;;;29.70;51.00;;;;;;4102623;28;20035;-58
2022/11/25 06:21:05;;;;;;;2.97;2.10;;;29.70;51.10;;;;;;4105504;28;20046;-55
2022/11/25 06:23:27;;;;;;;4.43;2.10;;;29.70;51.00;;;;;;4105439;28;20775;-53
2022/11/25 06:25:50;;;;;;;3.92;2.03;;;29.70;51.10;;;;;;4088781;28;20039;-59
2022/11/25 06:28:12;;;;;;;5.43;2.38;;;29.70;51.10;;;;;;4101975;28;20505;-58
2022/11/25 06:30:35;;;;;;;4.03;2.67;;;29.70;51.00;;;;;;4089731;28;20041;-58
2022/11/25 06:32:57;;;;;;;4.28;1.98;;;29.70;51.00;;;;;;4105422;28;20129;-56
2022/11/25 06:35:20;;;;;;;5.35;2.47;;;29.70;51.10;;;;;;4099691;28;20121;-55
2022/11/25 06:37:43;;;;;;;3.47;2.22;;;29.70;51.10;;;;;;4103380;28;20442;-58
2022/11/25 06:40:06;;;;;;;5.35;3.17;;;29.60;51.10;;;;;;4102751;28;20077;-54
2022/11/25 06:42:29;;;;;;;5.75;3.90;;;29.60;51.00;;;;;;4104894;28;20488;-56
2022/11/25 06:44:51;;;;;;;7.35;4.90;;;29.60;51.10;;;;;;4104002;28;20050;-54
2022/11/25 06:47:14;;;;;;;7.32;5.35;;;29.60;51.10;;;;;;4094017;28;20043;-55
2022/11/25 06:49:37;;;;;;;9.43;5.97;;;29.60;51.00;;;;;;4107194;28;20093;-56
2022/11/25 06:51:59;;;;;;;7.75;5.53;;;29.50;50.90;;;;;;4105450;28;20234;-51
2022/11/25 06:54:22;;;;;;;9.07;5.90;;;29.50;51.00;;;;;;4106992;28;20038;-47
2022/11/25 06:56:50;;;;;;;9.10;5.55;;;29.50;51.40;;;;;;4103433;28;20039;-53
2022/11/25 06:59:13;;;;;;;9.60;6.53;;;29.50;50.40;;;;;;4107302;28;20062;-49
2022/11/25 07:01:35;;;;;;;9.03;5.90;;;29.40;50.20;;;;;;4104470;28;20039;-49
2022/11/25 07:04:05;;;;;;;7.43;5.78;;;29.40;50.40;;;;;;4105276;28;20053;-57
2022/11/25 07:06:28;;;;;;;8.98;5.28;;;29.40;50.40;;;;;;4104631;28;20039;-54
2022/11/25 07:08:51;;;;;;;6.85;4.40;;;29.30;50.70;;;;;;4106602;28;20050;-54
2022/11/25 07:11:13;;;;;;;7.28;4.68;;;29.20;50.90;;;;;;4106317;28;20069;-55
2022/11/25 07:13:36;;;;;;;5.95;4.00;;;29.10;51.10;;;;;;4106395;28;20116;-49
2022/11/25 07:16:08;;;;;;;6.35;4.05;;;29.10;51.30;;;;;;4108977;28;20057;-51
2022/11/25 07:18:35;;;;;;;5.25;3.95;;;29.10;50.90;;;;;;4104329;28;20097;-54
2022/11/25 07:21:03;;;;;;;5.20;3.72;;;29.10;50.80;;;;;;4096629;28;20138;-52
2022/11/25 07:23:26;;;;;;;4.82;3.30;;;29.00;50.70;;;;;;4107420;28;20964;-52
2022/11/25 07:25:49;;;;;;;8.63;3.30;;;29.00;50.60;;;;;;4105170;28;20128;-51
2022/11/25 07:28:12;;;;;;;5.60;3.35;;;29.00;50.60;;;;;;4106044;28;20096;-53
2022/11/25 07:30:34;;;;;;;5.95;3.28;;;28.90;50.60;;;;;;4106013;28;20043;-52
2022/11/25 07:32:57;;;;;;;5.10;3.10;;;28.90;50.70;;;;;;4107719;28;20502;-50
2022/11/25 07:35:19;;;;;;;6.72;3.05;;;28.80;50.50;;;;;;4106369;28;20050;-49
2022/11/25 07:37:42;;;;;;;5.97;3.20;;;28.80;50.60;;;;;;4105830;28;20058;-54
2022/11/25 07:40:06;;;;;;;5.70;3.47;;;28.70;50.60;;;;;;4107309;28;20514;-54
2022/11/25 07:42:29;;;;;;;4.50;2.80;;;28.70;50.70;;;;;;4086863;28;20039;-49
2022/11/25 07:44:51;;;;;;;4.55;3.22;;;28.60;50.70;;;;;;4098650;28;20646;-51
2022/11/25 07:47:14;;;;;;;5.80;3.00;;;28.50;50.90;;;;;;4103775;28;20038;-52
2022/11/25 07:49:36;;;;;;;4.35;2.42;;;28.50;50.90;;;;;;4106082;28;20506;-53
2022/11/25 07:52:01;;;;;;;4.28;2.85;;;28.50;50.90;;;;;;4101895;28;20035;-51
2022/11/25 07:54:24;;;;;;;4.53;2.90;;;28.50;50.90;;;;;;4105604;28;20031;-52
2022/11/25 07:56:47;;;;;;;4.53;2.90;;;28.40;50.90;;;;;;4106336;28;20679;-50
2022/11/25 07:59:13;;;;;;;6.00;2.88;;;28.40;51.00;;;;;;4104605;28;20092;-53
2022/11/25 08:01:35;;;;;;;3.88;2.55;;;28.40;51.00;;;;;;4105848;28;20059;-54
2022/11/25 08:03:58;;;;;;;3.92;2.72;;;28.40;51.00;;;;;;4103716;28;20458;-53
2022/11/25 08:06:23;;;;;;;4.72;3.00;;;28.30;51.00;;;;;;4106517;28;20122;-52
2022/11/25 08:08:46;;;;;;;3.50;2.58;;;28.30;50.90;;;;;;4108015;28;20129;-53
2022/11/25 08:11:15;;;;;;;5.35;2.72;;;28.30;51.00;;;;;;4104909;28;20108;-50
2022/11/25 08:13:38;;;;;;;5.57;2.85;;;28.30;51.10;;;;;;4106628;28;20046;-51
2022/11/25 08:16:00;;;;;;;4.53;2.88;;;28.20;51.10;;;;;;4108564;28;20038;-55
2022/11/25 08:18:23;;;;;;;5.13;2.55;;;28.20;51.20;;;;;;4108245;28;20450;-49
2022/11/25 08:20:46;;;;;;;3.78;2.55;;;28.20;51.20;;;;;;4106164;28;20105;-49
2022/11/25 08:23:08;;;;;;;4.15;2.45;;;28.20;51.20;;;;;;4107412;28;20070;-53
2022/11/25 08:25:31;;;;;;;5.63;2.47;;;28.10;51.20;;;;;;4106370;28;20562;-49
2022/11/25 08:27:53;;;;;;;4.22;2.60;;;28.10;51.20;;;;;;4095606;28;20042;-51
2022/11/25 08:30:16;;;;;;;5.07;2.90;;;28.10;51.30;;;;;;4105951;28;20043;-47
2022/11/25 08:32:39;;;;;;;3.77;2.60;;;28.10;51.30;;;;;;4106936;28;20156;-50
2022/11/25 08:35:01;;;;;;;2.88;2.17;;;28.00;51.30;;;;;;4104118;28;20411;-50
2022/11/25 08:37:24;;;;;;;4.47;2.65;;;28.00;51.30;;;;;;4105974;28;20038;-47
2022/11/25 08:39:49;;;;;;;3.72;2.40;;;28.00;51.40;;;;;;4106920;28;20092;-51
2022/11/25 08:42:11;;;;;;;3.45;2.47;;;27.90;51.40;;;;;;4106107;28;20049;-48
2022/11/25 08:44:35;;;;;;;3.83;2.65;;;27.90;51.40;;;;;;4105851;28;20054;-50
2022/11/25 08:46:58;;;;;;;4.53;2.78;;;27.90;51.40;;;;;;4105750;28;20118;-47
2022/11/25 08:49:21;;;;;;;3.88;2.42;;;27.90;51.50;;;;;;4105311;28;20337;-51
2022/11/25 08:51:43;;;;;;;4.82;2.33;;;27.90;51.60;;;;;;4106154;28;20518;-46
2022/11/25 08:54:08;;;;;;;4.30;2.58;;;27.90;51.60;;;;;;4107052;28;20460;-51
2022/11/25 08:56:30;;;;;;;3.78;2.40;;;27.80;51.60;;;;;;4110618;28;20073;-48
2022/11/25 08:58:55;;;;;;;4.45;2.50;;;27.80;51.70;;;;;;4109089;28;20364;-50
2022/11/25 09:01:19;;;;;;;4.05;2.72;;;27.80;51.70;;;;;;4111751;28;20065;-51
2022/11/25 09:03:46;;;;;;;3.83;2.60;;;27.70;51.60;;;;;;4111315;28;20038;-51
2022/11/25 09:06:10;;;;;;;3.53;2.78;;;27.70;51.80;;;;;;4112330;28;20045;-51
2022/11/25 09:08:33;;;;;;;4.03;2.10;;;27.70;51.80;;;;;;4111665;28;20035;-49
2022/11/25 09:10:55;;;;;;;3.95;2.58;;;27.70;51.90;;;;;;4112211;28;20059;-50
2022/11/25 09:13:18;;;;;;;4.13;2.63;;;27.70;51.90;;;;;;4110008;28;20034;-49
2022/11/25 09:15:40;;;;;;;4.80;2.83;;;27.60;51.90;;;;;;4110205;28;20481;-48
2022/11/25 09:18:10;;;;;;;4.75;2.58;;;27.60;51.90;;;;;;4109476;28;20066;-52
2022/11/25 09:20:34;;;;;;;4.25;2.75;;;27.60;52.00;;;;;;4108793;28;20054;-47
2022/11/25 09:22:59;;;;;;;4.03;2.65;;;27.60;52.10;;;;;;4095548;28;20086;-52
2022/11/25 09:25:22;;;;;;;4.80;2.85;;;27.50;52.10;;;;;;4109601;28;20039;-49
2022/11/25 09:27:45;;;;;;;4.88;2.95;;;27.50;52.20;;;;;;4108342;28;20046;-46
2022/11/25 09:30:08;;;;;;;4.60;2.60;;;27.50;52.20;;;;;;4108946;28;20038;-47
2022/11/25 09:32:30;;;;;;;5.82;3.05;;;27.50;52.30;;;;;;4110601;28;20581;-46
2022/11/25 09:34:53;;;;;;;3.80;2.60;;;27.50;52.30;;;;;;4108097;28;20117;-48
2022/11/25 09:37:15;;;;;;;3.92;2.90;;;27.40;52.30;;;;;;4096002;28;20032;-51
2022/11/25 09:39:38;;;;;;;4.93;2.85;;;27.40;52.40;;;;;;4109884;28;20097;-46
2022/11/25 09:48:48;;;;;;;7.75;3.10;;;27.40;52.70;;;;;;4111443;28;20069;-50
2022/11/25 09:51:20;;;;;;;4.75;2.35;;;27.30;52.80;;;;;;4115610;28;20519;-46
2022/11/25 09:54:20;;;;;;;3.42;2.20;;;27.30;52.90;;;;;;4118924;28;20042;-51
2022/11/25 09:56:49;;;;;;;3.40;2.30;;;27.30;52.90;;;;;;4108245;28;20090;-50
2022/11/25 09:59:27;;;;;;;4.15;2.30;;;27.30;53.00;;;;;;4108983;28;20435;-49
2022/11/25 10:02:23;;;;;;;3.95;2.40;;;27.30;53.10;;;;;;4108862;28;20046;-50
2022/11/25 10:05:13;;;;;;;3.10;2.40;;;27.20;53.10;;;;;;4099443;28;20074;-49
2022/11/25 10:07:52;;;;;;;4.93;2.50;;;27.20;53.20;;;;;;4101505;28;20328;-47
2022/11/25 10:10:36;;;;;;;3.75;2.63;;;27.20;53.20;;;;;;4097412;28;20202;-48
2022/11/25 10:12:59;;;;;;;3.47;2.17;;;27.20;53.20;;;;;;4104654;28;20529;-51
2022/11/25 10:15:27;;;;;;;;;;;27.10;53.20;;;;;;4107417;28;20391;-49
2022/11/25 10:17:53;;;;;;;3.50;2.08;;;27.10;53.30;;;;;;4108148;28;19961;-52
2022/11/25 10:20:25;;;;;;;4.97;2.40;;;27.10;53.30;;;;;;4106145;28;20812;-50
2022/11/25 10:23:15;;;;;;;4.60;2.75;;;27.10;53.40;;;;;;4104893;28;20039;-51
2022/11/25 10:25:47;;;;;;;4.72;2.67;;;27.10;53.40;;;;;;4112599;28;20034;-51
2022/11/25 10:28:33;;;;;;;3.72;2.30;;;27.00;53.50;;;;;;4107871;28;20181;-48
2022/11/25 10:31:13;;;;;;;4.35;2.30;;;27.00;53.50;;;;;;4103204;28;20097;-50
2022/11/25 10:33:39;;;;;;;4.40;2.20;;;27.00;53.60;;;;;;4111916;28;20498;-48
2022/11/25 10:36:14;;;;;;;4.03;1.90;;;27.00;53.70;;;;;;4112170;28;20346;-47
2022/11/25 10:38:57;;;;;;;4.63;2.20;;;27.00;53.70;;;;;;4113080;28;20034;-47
2022/11/25 10:41:23;;;;;;;3.22;2.10;;;27.00;53.70;;;;;;4110422;28;20054;-48
2022/11/25 10:43:47;;;;;;;3.15;2.00;;;26.90;53.80;;;;;;4111385;28;20097;-50
2022/11/25 10:46:44;;;;;;;4.03;2.15;;;26.90;53.80;;;;;;4112514;28;20058;-50
2022/11/25 10:49:42;;;;;;;4.65;2.45;;;26.90;53.80;;;;;;4111296;28;20156;-53
2022/11/25 10:52:12;;;;;;;3.90;1.80;;;26.90;53.90;;;;;;4059258;28;20365;-48
2022/11/25 10:54:34;;;;;;;4.50;2.10;;;26.80;53.80;;;;;;4109035;28;20081;-46
2022/11/25 10:57:02;;;;;;;3.63;2.03;;;26.80;53.80;;;;;;4112102;28;20066;-49
2022/11/25 10:59:34;;;;;;;3.28;2.00;;;26.80;54.50;;;;;;4110591;28;20129;-53
2022/11/25 11:02:20;;;;;;;2.63;1.80;;;26.80;53.90;;;;;;4108552;28;20124;-46
2022/11/25 11:05:02;;;;;;;4.10;2.03;;;26.80;53.90;;;;;;4092680;28;20349;-45
2022/11/25 11:07:28;;;;;;;4.60;2.00;;;26.80;54.00;;;;;;4111196;28;20039;-47
2022/11/25 11:09:51;;;;;;;3.28;2.00;;;26.70;54.00;;;;;;4112441;28;20034;-49
2022/11/25 11:12:28;;;;;;;3.08;1.85;;;26.70;54.00;;;;;;4104961;28;20111;-49
2022/11/25 11:14:53;;;;;;;4.75;2.03;;;26.70;54.00;;;;;;4109335;28;20400;-47
2022/11/25 11:17:34;;;;;;;5.15;2.05;;;26.70;54.00;;;;;;4107759;28;20046;-52
2022/11/25 11:20:09;;;;;;;3.38;1.88;;;26.70;54.10;;;;;;4110907;28;20043;-53
2022/11/25 11:22:36;;;;;;;3.67;1.95;;;26.60;54.10;;;;;;4112510;28;20046;-49
2022/11/25 11:25:19;;;;;;;2.78;1.85;;;26.60;54.10;;;;;;4109393;28;20546;-53
2022/11/25 11:27:42;;;;;;;2.80;1.80;;;26.60;54.10;;;;;;4111276;28;20034;-47
2022/11/25 11:30:16;;;;;;;3.28;1.90;;;26.60;54.10;;;;;;4104422;28;20077;-47
2022/11/25 11:32:46;;;;;;;2.95;1.80;;;26.60;54.10;;;;;;4105220;28;20486;-49
2022/11/25 11:35:49;;;;;;;4.38;1.85;;;26.60;54.20;;;;;;4106243;28;20539;-47
2022/11/25 11:38:38;;;;;;;4.22;2.10;;;26.60;54.20;;;;;;4047653;29;20064;-51
2022/11/25 11:41:17;;;;;;;4.13;2.22;;;26.60;54.20;;;;;;4112294;28;20046;-50
2022/11/25 11:44:00;;;;;;;3.45;1.77;;;26.50;54.30;;;;;;4107885;28;20105;-51
2022/11/25 11:46:42;;;;;;;3.58;2.10;;;26.50;54.20;;;;;;4111379;28;20113;-47
2022/11/25 11:49:43;;;;;;;3.58;2.00;;;26.50;54.20;;;;;;4111560;28;20410;-49
2022/11/25 11:52:38;;;;;;;3.97;1.80;;;26.50;54.30;;;;;;4064081;29;20135;-47
2022/11/25 11:55:35;;;;;;;4.18;2.10;;;26.50;54.20;;;;;;4111028;28;20626;-51
2022/11/25 11:58:17;;;;;;;3.22;1.70;;;26.50;54.30;;;;;;4107738;28;20471;-48
2022/11/25 12:00:56;;;;;;;4.40;2.00;;;26.50;54.30;;;;;;4112328;28;20047;-51
2022/11/25 12:03:24;;;;;;;3.35;1.63;;;26.40;54.30;;;;;;4114360;28;20552;-51
2022/11/25 12:05:54;;;;;;;3.45;2.03;;;26.40;54.40;;;;;;4108799;28;20034;-48
2022/11/25 12:08:25;;;;;;;3.15;1.88;;;26.40;54.30;;;;;;4110829;28;20042;-51
2022/11/25 12:10:54;;;;;;;3.20;1.80;;;26.40;54.40;;;;;;4119142;28;20049;-51
2022/11/25 12:13:27;;;;;;;3.65;2.03;;;26.40;54.40;;;;;;4117367;28;20512;-51
2022/11/25 12:16:08;;;;;;;3.05;1.80;;;26.40;54.40;;;;;;4118312;28;20073;-50
2022/11/25 12:18:40;;;;;;;2.90;1.92;;;26.30;54.30;;;;;;4108206;28;20121;-50
2022/11/25 12:21:11;;;;;;;3.28;1.75;;;26.30;54.40;;;;;;4116885;28;20054;-51
2022/11/25 12:23:39;;;;;;;2.40;1.63;;;26.30;54.40;;;;;;4111758;28;20034;-54
2022/11/25 12:26:14;;;;;;;3.13;1.77;;;26.30;54.40;;;;;;4119153;28;20038;-50
2022/11/25 12:28:45;;;;;;;2.83;1.60;;;26.30;54.50;;;;;;4113297;28;20050;-46
2022/11/25 12:31:18;;;;;;;2.90;1.80;;;26.30;54.60;;;;;;4115520;28;20047;-50
2022/11/25 12:33:53;;;;;;;6.97;2.00;;;26.30;54.60;;;;;;4107980;28;20047;-51
2022/11/25 12:36:22;;;;;;;3.08;1.95;;;26.20;54.90;;;;;;4109993;28;20035;-48
2022/11/25 12:39:02;;;;;;;3.80;1.88;;;26.20;55.10;;;;;;4104760;28;20170;-48
2022/11/25 12:41:53;;;;;;;4.50;1.67;;;26.20;55.20;;;;;;4107018;28;20047;-52
2022/11/25 12:44:29;;;;;;;6.03;2.00;;;26.20;55.30;;;;;;4106669;28;20482;-52
2022/11/25 12:46:56;;;;;;;3.63;1.73;;;26.20;55.30;;;;;;4107991;28;20507;-53
2022/11/25 12:49:25;;;;;;;2.67;1.60;;;26.20;55.40;;;;;;4107831;28;20039;-50
2022/11/25 12:52:24;;;;;;;4.32;1.73;;;26.30;55.40;;;;;;4110081;28;20039;-51
2022/11/25 12:54:59;;;;;;;4.72;1.70;;;26.20;55.40;;;;;;4106530;28;20375;-50
2022/11/25 12:57:58;;;;;;;2.72;1.98;;;26.30;55.50;;;;;;4106247;28;20534;-51
2022/11/25 13:00:45;;;;;;;4.20;2.17;;;26.30;55.50;;;;;;4106366;28;20420;-55